Jefferson, SD (57038)

9:49 PM CDT on August 29, 2016 (GMT -0500)
| | Change Station

Elev -9999 ft 0.00 °N, 0.00 °E | Updated

Thunderstorm
Thunderstorm
72 °F
Feels Like 72 °F
N
2
Wind Variable Wind from SSE
Gusts mph

Today
High -- | Low -- °F
--% Chance of Precip.
Yesterday
High -- | Low -- °F
Precip. -- in
Pressure 30.21 in
Visibility 10.0 miles
Clouds Scattered Clouds 12000 ft
Dew Point 70 °F
Humidity 94%
Rainfall --
Snow Depth Not available.
6:48 AM 8:04 PM
Waning Crescent, 5% visible
SPECI KSUX 300241Z 23009KT 10SM -TSRA SCT120 21/19 A3021 RMK AO2 LTG DSNT ALQDS TSE16B37 P0001 T02110189
Pressure 30.21 in
Visibility 10.0 miles
Clouds Scattered Clouds 12000 ft
Dew Point 70 °F
Humidity 94%
Rainfall --
Snow Depth Not available.
6:48 AM 8:04 PM
Waning Crescent, 5% visible
SPECI KSUX 300241Z 23009KT 10SM -TSRA SCT120 21/19 A3021 RMK AO2 LTG DSNT ALQDS TSE16B37 P0001 T02110189

10-Day Weather Forecast

Almanac

Astronomy

Aug. 29, 2016 Rise Set
Actual Time
Civil Twilight
Nautical Twilight
Astronomical Twilight
Moon
Length of Visible Light
Length of Day
Tomorrow will be .
, % of the Moon is Illuminated

Today's Extremes

State Highs State Lows

Community

WunderPhotos

Upload Photos

1,935,747 photos uploaded!

WunderBlog® & News

Nearby

Air Quality

  Air Quality AQ Index Pollutant
Not available.

Snow Depth

Station Depth Elevation

Earthquake Activity

City Distance Mag. Time & Date
Minimum magnitude displayed is 2.5.

Coastal Water Temperatures

Place Temperature

Stations

Nearby Weather Stations

Station Location Temp. Windchill Dew Point Humidity Wind Precip. Elev Updated Type
                   

Watches & Warnings

There are currently no watches in effect.